KALW/ALW METAR and TAF weather

Enter ICAO airport designator
Station Type Date Time Source
KALW METAR 2018/10/16 13:53 UTC NOAA

KALW 161353Z 00000KT 10SM CLR 04/M01 A3040 RMK AO2 SLP299 T00441011 $


Station Type Date Time Source
KALW Decoded METAR 2018/10/16 13:53 UTC NOAA

WALLA WALLA REGIONAL AIRPORT, WA, United States (KALW) 46-06N 118-17W 363M
Oct 16, 2018 - 09:53 AM EDT / 2018.10.16 1353 UTC
Wind: Calm:0
Visibility: 10 mile(s):0
Sky conditions: clear
Temperature: 39.9 F (4.4 C)
Dew Point: 30.0 F (-1.1 C)
Relative Humidity: 67%
Pressure (altimeter): 30.4 in. Hg (1029 hPa)
ob: KALW 161353Z 00000KT 10SM CLR 04/M01 A3040 RMK AO2 SLP299 T00441011
cycle: 14

Station Type Date Time Source
KALW TAF 2018/10/16 12:22 UTC NOAA

TAF KALW 161120Z 1612/1712 12006KT P6SM SKC
FM161800 36006KT P6SM SKC
FM170300 13005KT P6SM SKC


Example: see airport list